Noonan, North Dakota
Current Conditions -  °F | °C
As of 11:35 PM on Wednesday 22 Oct 2014 (Local Time) from KD50 Reporting Station
Unknown Precip Unknown Precip  
Wind Chill: 40°   Ceiling: Unl
Heat Index: 46°   Visibility: 10mi
Dew Point: 37°   Wind: 14mph
Humidity: 71%   Direction: 240°WSW
Pressure: 29.83"   Gusts: NA
Location:  48.89°N, 103.01°W
Report Text: KD50 230435Z AUTO 24012KT 10SM UP CLR 08/03 A2983 RMK AO2
Loading
Personal Weather Stations






























Interactive Weather Map
Tropical Storm Tracking
New forecast layout! Learn more

10-Day Weather Forecast

Advertisements
Track Severe Weather on mobile